Salalah, Oman

12:20 PM GST on July 23, 2014 (GMT +0400)
Salalah (OOSA) Elev 66 ft | 17.04 °N, 54.09 °E | Change Station

Current weather conditions updated 30 minutes ago

Light Drizzle
Light Drizzle
77 °F
Feels Like 77 °F
N
7
Wind Variable Wind from South

Today is forecast to be Much Warmer than yesterday.

Today
High -- | Low -- °F
--% Chance of Precip.
Yesterday
High -- | Low -- °F
Precip. -- in
6:00 AM 6:59 PM
Waning Crescent, 12% visible
Pressure 29.62 in
Visibility 2.2 miles
Clouds Scattered Clouds 700 ft
Mostly Cloudy 1200 ft
Overcast 2000 ft
Dew Point 75 °F
Humidity 94%
Rainfall 0.00 in
Snow Depth Not available.
UV 5 out of 12
Pollen Not available.
Air Quality Not available.
Flu Activity Not available.
METAR OOSA 230750Z 17006KT 140V200 3500 -DZ SCT007 BKN012 OVC020 25/24 Q1003 NOSIG RMK51 RH92

More Conditions Fewer Conditions

Pressure 29.62 in
Visibility 2.2 miles
Clouds Scattered Clouds 700 ft
Mostly Cloudy 1200 ft
Overcast 2000 ft
Dew Point 75 °F
Humidity 94%
Rainfall 0.00 in
Snow Depth Not available.
UV 5 out of 12
Pollen Not available.
Air Quality Not available.
Flu Activity Not available.
METAR OOSA 230750Z 17006KT 140V200 3500 -DZ SCT007 BKN012 OVC020 25/24 Q1003 NOSIG RMK51 RH92

More Conditions Fewer Conditions

10-Day Weather Forecast

Almanac

Astronomy

Jul. 23, 2014 Rise Set
Actual Time 6:00 AM GST 6:59 PM GST
Civil Twilight 5:37 AM GST 7:22 PM GST
Nautical Twilight 5:09 AM GST 7:50 PM GST
Astronomical Twilight 4:41 AM GST 8:18 PM GST
Moon 2:57 AM GST 4:10 PM GST
Length of Visible Light 13h 45m
Length of Day
12h 58m
Tomorrow will be 0m 37s shorter.
Waning Crescent, 12% of the Moon is Illuminated
Today
Waning Crescent
Jul 26
New
Aug 3
First Quarter
Aug 10
Full
Aug 17
Last Quarter

Yesterday's Extremes

Country Highs Country Lows

Community

WunderPhotos

Upload Photos

1,736,529 photos uploaded!

Nearby

Snow Depth

Not available.

Earthquake Activity

City Distance Mag. Time & Date
No recent earthquake activity has been reported nearby.
Minimum magnitude displayed is 2.5.

Coastal Water Temperatures

Place Temperature
No Stations Reporting

Nearby Weather Stations

There are no personal weather stations in this area.